createdAt,value
2017-10-19T00:02:38.898Z,90.30
2017-10-19T00:05:49.125Z,90.20
2017-10-19T00:08:59.158Z,90.20
2017-10-19T00:12:09.261Z,90.40
2017-10-19T00:15:19.424Z,90.40
2017-10-19T00:18:29.509Z,90.40
2017-10-19T00:21:39.591Z,90.40
2017-10-19T00:24:49.378Z,90.20
2017-10-19T00:28:00.217Z,90.30
2017-10-19T00:31:10.839Z,90.30
2017-10-19T00:34:20.731Z,90.20
2017-10-19T00:37:31.716Z,90.20
2017-10-19T00:40:41.765Z,90.20
2017-10-19T00:43:51.788Z,90.30
2017-10-19T00:47:01.998Z,90.20
2017-10-19T00:50:12.078Z,90.40
2017-10-19T00:53:21.882Z,90.30
2017-10-19T00:56:31.624Z,90.50
2017-10-19T00:59:41.553Z,90.40
2017-10-19T01:02:52.114Z,90.30
2017-10-19T01:06:02.699Z,90.30
2017-10-19T01:09:13.121Z,90.30
2017-10-19T01:12:23.257Z,90.30
2017-10-19T01:15:33.191Z,90.30
2017-10-19T01:18:44.052Z,90.50
2017-10-19T01:21:54.411Z,90.40
2017-10-19T01:25:04.208Z,90.50
2017-10-19T01:28:14.321Z,90.40
2017-10-19T01:31:24.171Z,90.40
2017-10-19T01:34:34.181Z,90.50
2017-10-19T01:37:44.137Z,90.40
2017-10-19T01:40:54.576Z,90.50
2017-10-19T01:44:04.107Z,91.10
2017-10-19T01:47:14.696Z,91.30
2017-10-19T01:50:24.511Z,91.00
2017-10-19T01:53:34.526Z,91.10
2017-10-19T01:56:44.460Z,91.10
2017-10-19T01:59:54.460Z,91.10
2017-10-19T02:03:04.334Z,90.90
2017-10-19T02:06:14.374Z,90.90
2017-10-19T02:09:24.249Z,90.90
2017-10-19T02:12:35.102Z,90.70
2017-10-19T02:15:44.973Z,90.60
2017-10-19T02:18:55.719Z,90.80
2017-10-19T02:22:05.708Z,90.90
2017-10-19T02:25:15.534Z,90.70
2017-10-19T02:28:25.562Z,90.80
2017-10-19T02:31:35.727Z,90.70
2017-10-19T02:34:45.755Z,90.70
2017-10-19T02:37:55.697Z,90.80
2017-10-19T02:41:06.360Z,90.80
2017-10-19T02:44:16.802Z,90.70
2017-10-19T02:47:27.771Z,90.80
2017-10-19T02:50:37.561Z,90.80
2017-10-19T02:53:48.031Z,90.80
2017-10-19T02:56:57.687Z,90.70
2017-10-19T03:00:08.134Z,90.60
2017-10-19T03:03:18.343Z,90.70
2017-10-19T03:06:28.075Z,90.80
2017-10-19T03:09:37.959Z,90.60
2017-10-19T03:12:48.134Z,90.70
2017-10-19T03:15:58.098Z,90.70
2017-10-19T03:19:08.150Z,90.70
2017-10-19T03:22:18.417Z,90.70
2017-10-19T03:25:28.457Z,90.70
2017-10-19T03:28:38.325Z,90.70
2017-10-19T03:31:48.041Z,90.80
2017-10-19T03:34:58.031Z,90.60
2017-10-19T03:38:08.073Z,90.80
2017-10-19T03:41:32.330Z,90.80
2017-10-19T03:44:42.669Z,90.70
2017-10-19T03:47:52.555Z,90.70
2017-10-19T03:51:03.331Z,90.70
2017-10-19T03:57:49.889Z,90.80
2017-10-19T04:00:59.788Z,90.70
2017-10-19T04:04:09.961Z,90.70
2017-10-19T04:07:20.062Z,90.60
2017-10-19T04:10:29.786Z,90.50
2017-10-19T04:13:39.566Z,90.50
2017-10-19T04:16:49.888Z,90.50
2017-10-19T04:19:59.897Z,90.60
2017-10-19T04:23:09.825Z,90.60
2017-10-19T04:26:19.920Z,90.60
2017-10-19T04:29:30.982Z,90.70
2017-10-19T04:32:41.184Z,90.50
2017-10-19T04:35:51.426Z,90.40
2017-10-19T04:39:01.742Z,90.50
2017-10-19T04:42:11.689Z,90.50
2017-10-19T04:45:21.801Z,90.40
2017-10-19T04:48:33.132Z,90.60
2017-10-19T04:51:43.250Z,90.60
2017-10-19T04:54:53.131Z,90.50
2017-10-19T04:58:03.099Z,90.60
2017-10-19T05:01:13.134Z,90.60
2017-10-19T05:04:27.043Z,90.50
2017-10-19T05:07:36.934Z,90.50
2017-10-19T05:10:46.866Z,90.60
2017-10-19T05:13:57.799Z,90.50
2017-10-19T05:17:08.136Z,90.50
2017-10-19T05:20:17.933Z,90.60
2017-10-19T05:23:28.017Z,90.70
2017-10-19T05:26:37.921Z,90.60
2017-10-19T05:29:47.800Z,90.70
2017-10-19T05:32:57.751Z,90.60
2017-10-19T05:36:08.496Z,90.60
2017-10-19T05:39:18.992Z,90.60
2017-10-19T05:42:28.882Z,90.70
2017-10-19T05:45:38.743Z,90.70
2017-10-19T05:48:48.733Z,90.60
2017-10-19T05:51:58.750Z,90.60
2017-10-19T05:55:08.550Z,90.60
2017-10-19T05:58:19.980Z,90.60
2017-10-19T06:01:29.749Z,90.60
2017-10-19T06:04:40.476Z,91.00
2017-10-19T06:07:50.694Z,90.60
2017-10-19T06:11:00.678Z,90.60
2017-10-19T06:14:10.626Z,90.60
2017-10-19T06:17:31.841Z,90.60
2017-10-19T06:20:42.434Z,90.60
2017-10-19T06:23:52.464Z,90.50
2017-10-19T06:27:02.569Z,90.50
2017-10-19T06:30:12.395Z,90.40
2017-10-19T06:33:23.109Z,90.40
2017-10-19T06:36:33.353Z,90.40
2017-10-19T06:39:43.337Z,90.40
2017-10-19T06:42:53.986Z,90.50
2017-10-19T06:46:04.573Z,90.20
2017-10-19T06:49:14.970Z,90.20
2017-10-19T06:52:24.837Z,90.00
2017-10-19T06:55:34.648Z,90.20
2017-10-19T06:58:44.518Z,90.00
2017-10-19T07:01:54.680Z,90.20
2017-10-19T07:05:04.442Z,90.00
2017-10-19T07:08:14.463Z,89.50
2017-10-19T07:11:24.375Z,89.20
2017-10-19T07:14:34.221Z,89.70
2017-10-19T07:17:44.359Z,89.30
2017-10-19T07:20:54.962Z,89.70
2017-10-19T07:24:05.190Z,89.10
2017-10-19T07:27:15.521Z,88.70
2017-10-19T07:30:25.053Z,87.80
2017-10-19T07:33:35.511Z,87.30
2017-10-19T07:36:45.477Z,86.80
2017-10-19T07:39:55.577Z,87.10
2017-10-19T07:43:09.052Z,86.90
2017-10-19T07:46:21.286Z,86.20
2017-10-19T07:49:31.526Z,86.10
2017-10-19T07:52:41.395Z,85.10
2017-10-19T07:55:51.807Z,85.60
2017-10-19T07:59:02.706Z,86.20
2017-10-19T08:02:13.448Z,85.30
2017-10-19T08:05:23.341Z,84.90
2017-10-19T08:08:33.538Z,85.90
2017-10-19T08:11:43.334Z,85.30
2017-10-19T08:14:53.869Z,85.00
2017-10-19T08:18:09.199Z,84.40
2017-10-19T08:21:19.888Z,84.60
2017-10-19T08:24:31.192Z,84.20
2017-10-19T08:27:41.469Z,83.90
2017-10-19T08:30:52.438Z,85.00
2017-10-19T08:34:03.107Z,85.10
2017-10-19T08:37:13.328Z,84.90
2017-10-19T08:40:23.991Z,84.70
2017-10-19T08:43:34.598Z,84.00
2017-10-19T08:46:44.861Z,85.20
2017-10-19T08:49:55.464Z,84.50
2017-10-19T08:53:05.684Z,84.30
2017-10-19T08:56:15.847Z,82.70
2017-10-19T08:59:25.708Z,82.70
2017-10-19T09:02:35.750Z,83.80
2017-10-19T09:05:46.317Z,82.70
2017-10-19T09:08:56.682Z,83.60
2017-10-19T09:12:07.447Z,82.60
2017-10-19T09:15:17.377Z,81.30
2017-10-19T09:18:27.324Z,81.40
2017-10-19T09:21:37.476Z,82.10
2017-10-19T09:24:47.807Z,81.40
2017-10-19T09:27:58.024Z,80.40
2017-10-19T09:31:07.871Z,79.60
2017-10-19T09:34:18.502Z,78.60
2017-10-19T09:37:28.502Z,78.60
2017-10-19T09:40:38.497Z,79.70
2017-10-19T09:43:48.387Z,79.40
2017-10-19T09:46:58.513Z,79.20
2017-10-19T09:50:08.709Z,78.10
2017-10-19T09:53:18.766Z,76.40
2017-10-19T09:56:28.877Z,74.50
2017-10-19T09:59:38.918Z,75.80
2017-10-19T10:02:49.307Z,75.50
2017-10-19T10:05:59.526Z,74.60
2017-10-19T10:09:09.800Z,74.50
2017-10-19T10:12:19.867Z,75.70
2017-10-19T10:15:30.666Z,75.60
2017-10-19T10:18:40.609Z,75.40
2017-10-19T10:21:50.530Z,73.20
2017-10-19T10:25:00.206Z,72.70
2017-10-19T10:28:10.486Z,71.50
2017-10-19T10:31:20.465Z,70.70
2017-10-19T10:34:30.730Z,70.80
2017-10-19T10:37:40.924Z,68.90
2017-10-19T10:40:51.493Z,69.30
2017-10-19T10:44:01.728Z,69.70
2017-10-19T10:47:11.701Z,68.30
2017-10-19T10:50:21.646Z,70.30
2017-10-19T10:53:31.465Z,65.40
2017-10-19T10:56:41.411Z,68.10
2017-10-19T10:59:52.257Z,67.50
2017-10-19T11:03:02.578Z,67.60
2017-10-19T11:06:12.532Z,65.60
2017-10-19T11:09:22.542Z,64.40
2017-10-19T11:12:32.371Z,64.00
2017-10-19T11:15:42.190Z,62.10
2017-10-19T11:18:52.207Z,63.20
2017-10-19T11:22:02.916Z,65.20
2017-10-19T11:25:12.912Z,63.90
2017-10-19T11:28:22.966Z,65.50
2017-10-19T11:31:33.554Z,64.80
2017-10-19T11:34:43.586Z,64.60
2017-10-19T11:37:54.638Z,64.10
2017-10-19T11:41:04.912Z,64.10
2017-10-19T11:44:14.683Z,62.00
2017-10-19T11:47:24.471Z,61.10
2017-10-19T11:50:34.667Z,61.40
2017-10-19T11:53:45.260Z,59.60
2017-10-19T11:56:55.378Z,59.50
2017-10-19T12:00:05.011Z,59.70
2017-10-19T12:03:14.916Z,59.60
2017-10-19T12:06:25.034Z,59.90
2017-10-19T12:09:34.855Z,58.20
2017-10-19T12:12:44.589Z,59.50
2017-10-19T12:15:55.397Z,57.30
2017-10-19T12:19:05.636Z,57.30
2017-10-19T12:22:15.521Z,57.10
2017-10-19T12:25:25.508Z,58.20
2017-10-19T12:28:35.521Z,57.90
2017-10-19T12:31:45.361Z,59.10
2017-10-19T12:34:55.618Z,59.40
2017-10-19T12:38:07.089Z,51.40
2017-10-19T12:41:18.349Z,51.30
2017-10-19T12:44:28.651Z,49.70
2017-10-19T12:47:39.277Z,52.30
2017-10-19T12:50:50.052Z,50.80
2017-10-19T12:54:00.200Z,50.90
2017-10-19T12:57:11.031Z,50.30
2017-10-19T13:00:21.740Z,50.40
2017-10-19T13:03:31.883Z,50.40
2017-10-19T13:06:44.152Z,50.60
2017-10-19T13:09:57.642Z,50.30
2017-10-19T13:13:08.000Z,50.70
2017-10-19T13:16:19.738Z,49.50
2017-10-19T13:19:30.487Z,51.30
2017-10-19T13:22:40.877Z,51.30
2017-10-19T13:25:50.760Z,50.40
2017-10-19T13:29:01.520Z,51.30
2017-10-19T13:32:12.250Z,50.00
2017-10-19T13:35:22.948Z,51.40
2017-10-19T13:38:33.642Z,52.10
2017-10-19T13:41:44.364Z,51.50
2017-10-19T13:44:55.225Z,50.20
2017-10-19T13:48:05.086Z,49.80
2017-10-19T13:51:15.065Z,48.80
2017-10-19T13:54:25.701Z,47.90
2017-10-19T13:57:35.628Z,45.00
2017-10-19T14:00:46.788Z,44.70
2017-10-19T14:03:57.747Z,45.50
2017-10-19T14:07:08.637Z,43.90
2017-10-19T14:10:18.694Z,44.00
2017-10-19T14:13:29.217Z,44.40
2017-10-19T14:16:39.944Z,45.00
2017-10-19T14:19:49.707Z,44.30
2017-10-19T14:22:59.497Z,44.90
2017-10-19T14:26:09.509Z,44.30
2017-10-19T14:29:19.382Z,44.60
2017-10-19T14:32:30.041Z,45.20
2017-10-19T14:35:40.065Z,45.20
2017-10-19T14:38:49.985Z,45.40
2017-10-19T14:41:59.842Z,45.90
2017-10-19T14:45:09.782Z,48.30
2017-10-19T14:48:19.629Z,50.00
2017-10-19T14:51:29.485Z,50.00
2017-10-19T14:54:39.310Z,49.40
2017-10-19T14:57:49.969Z,49.90
2017-10-19T15:00:59.884Z,50.30
2017-10-19T15:04:09.744Z,50.80
2017-10-19T15:07:20.465Z,52.30
2017-10-19T15:10:30.863Z,52.20
2017-10-19T15:13:41.256Z,52.40
2017-10-19T15:16:51.625Z,54.40
2017-10-19T15:20:01.434Z,55.40
2017-10-19T15:23:11.357Z,56.10
2017-10-19T15:26:21.432Z,57.00
2017-10-19T15:29:32.166Z,58.30
2017-10-19T15:32:42.066Z,57.90
2017-10-19T15:35:52.636Z,59.10
2017-10-19T15:39:02.767Z,59.10
2017-10-19T15:42:12.745Z,59.90
2017-10-19T15:45:22.582Z,61.20
2017-10-19T15:48:32.579Z,63.10
2017-10-19T15:51:43.173Z,65.50
2017-10-19T15:54:53.656Z,65.50
2017-10-19T15:58:03.602Z,66.30
2017-10-19T16:01:14.576Z,67.90
2017-10-19T16:04:24.957Z,67.80
2017-10-19T16:07:34.878Z,69.30
2017-10-19T16:10:44.858Z,70.10
2017-10-19T16:13:54.710Z,70.50
2017-10-19T16:17:04.776Z,70.40
2017-10-19T16:20:15.107Z,71.10
2017-10-19T16:23:24.890Z,71.70
2017-10-19T16:26:34.954Z,71.60
2017-10-19T16:29:45.106Z,72.10
2017-10-19T16:32:54.890Z,72.00
2017-10-19T16:36:04.887Z,72.40
2017-10-19T16:39:14.924Z,72.80
2017-10-19T16:42:24.966Z,73.90
2017-10-19T16:45:34.925Z,73.90
2017-10-19T16:48:45.621Z,74.20
2017-10-19T16:51:55.767Z,74.20
2017-10-19T16:55:05.628Z,74.90
2017-10-19T16:58:15.406Z,76.30
2017-10-19T17:01:25.354Z,76.20
2017-10-19T17:04:35.521Z,76.60
2017-10-19T17:07:46.138Z,76.30
2017-10-19T17:10:57.010Z,76.60
2017-10-19T17:14:07.400Z,76.60
2017-10-19T17:17:17.970Z,77.00
2017-10-19T17:20:28.153Z,77.00
2017-10-19T17:23:37.967Z,77.20
2017-10-19T17:26:47.705Z,76.80
2017-10-19T17:29:57.597Z,77.70
2017-10-19T17:33:07.918Z,77.40
2017-10-19T17:36:18.502Z,77.10
2017-10-19T17:39:28.583Z,76.80
2017-10-19T17:42:38.595Z,77.00
2017-10-19T17:45:48.992Z,77.00
2017-10-19T17:49:00.408Z,78.40
2017-10-19T17:52:11.674Z,77.70
2017-10-19T17:55:22.522Z,78.70
2017-10-19T17:58:32.595Z,78.70
2017-10-19T18:01:42.745Z,78.70
2017-10-19T18:04:53.781Z,79.30
2017-10-19T18:08:03.374Z,78.30
2017-10-19T18:11:13.794Z,78.30
2017-10-19T18:14:23.875Z,78.20
2017-10-19T18:17:33.706Z,79.10
2017-10-19T18:20:43.701Z,78.80
2017-10-19T18:23:53.899Z,79.30
2017-10-19T18:27:04.574Z,79.40
2017-10-19T18:30:15.001Z,79.20
2017-10-19T18:33:24.934Z,79.30
2017-10-19T18:36:34.926Z,79.40
2017-10-19T18:39:45.697Z,79.40
2017-10-19T18:42:55.368Z,79.30
2017-10-19T18:46:05.448Z,79.30
2017-10-19T18:49:15.407Z,79.00
2017-10-19T18:52:25.360Z,79.40
2017-10-19T18:55:35.518Z,79.30
2017-10-19T18:58:45.233Z,79.00
2017-10-19T19:01:56.370Z,79.60
2017-10-19T19:05:06.530Z,79.60
2017-10-19T19:08:16.237Z,78.70
2017-10-19T19:11:26.235Z,78.20
2017-10-19T19:14:36.826Z,76.70
2017-10-19T19:17:47.150Z,76.70
2017-10-19T19:20:57.144Z,76.60
2017-10-19T19:24:06.896Z,77.10
2017-10-19T19:27:16.943Z,77.60
2017-10-19T19:30:27.115Z,76.90
2017-10-19T19:33:37.791Z,75.10
2017-10-19T19:36:48.113Z,75.00
2017-10-19T19:39:58.121Z,76.30
2017-10-19T19:43:08.110Z,76.70
2017-10-19T19:46:18.189Z,78.10
2017-10-19T19:49:28.913Z,76.50
2017-10-19T19:52:39.154Z,77.60
2017-10-19T19:55:49.138Z,76.60
2017-10-19T19:58:59.003Z,76.90
2017-10-19T20:02:08.854Z,77.00
2017-10-19T20:05:18.983Z,77.60
2017-10-19T20:08:28.879Z,73.70
2017-10-19T20:11:39.823Z,73.20
2017-10-19T20:14:49.999Z,73.20
2017-10-19T20:18:00.842Z,71.10
2017-10-19T20:21:10.913Z,71.00
2017-10-19T20:24:21.399Z,72.60
2017-10-19T20:27:32.520Z,73.00
2017-10-19T20:30:42.707Z,72.20
2017-10-19T20:33:53.393Z,72.40
2017-10-19T20:37:03.618Z,72.40
2017-10-19T20:40:13.463Z,70.80
2017-10-19T20:43:23.346Z,71.10
2017-10-19T20:46:33.547Z,71.30
2017-10-19T20:49:43.481Z,70.70
2017-10-19T20:52:53.441Z,70.00
2017-10-19T20:56:04.116Z,71.30
2017-10-19T20:59:13.893Z,70.50
2017-10-19T21:02:23.963Z,71.50
2017-10-19T21:05:33.889Z,70.50
2017-10-19T21:08:43.872Z,71.30
2017-10-19T21:11:54.866Z,72.30
2017-10-19T21:15:05.237Z,72.30
2017-10-19T21:18:15.424Z,71.90
2017-10-19T21:21:26.393Z,73.10
2017-10-19T21:24:37.906Z,72.60
2017-10-19T21:27:48.115Z,72.50
2017-10-19T21:30:57.923Z,72.00
2017-10-19T21:34:07.775Z,73.20
2017-10-19T21:37:17.698Z,74.70
2017-10-19T21:40:27.513Z,72.50
2017-10-19T21:43:37.525Z,73.10
2017-10-19T21:46:47.948Z,70.80
2017-10-19T21:49:58.093Z,71.20
2017-10-19T21:53:08.173Z,70.50
2017-10-19T21:56:18.842Z,72.20
2017-10-19T21:59:28.954Z,72.20
2017-10-19T22:02:38.921Z,72.20
2017-10-19T22:05:48.818Z,72.20
2017-10-19T22:08:58.747Z,73.30
2017-10-19T22:12:08.070Z,73.40
2017-10-19T22:15:18.524Z,73.40
2017-10-19T22:18:28.375Z,73.20
2017-10-19T22:21:38.366Z,74.00
2017-10-19T22:24:48.165Z,74.50
2017-10-19T22:27:58.111Z,75.10
2017-10-19T22:31:08.066Z,75.60
2017-10-19T22:34:18.038Z,75.80
2017-10-19T22:37:27.902Z,75.00
2017-10-19T22:40:37.801Z,74.20
2017-10-19T22:43:47.654Z,75.40
2017-10-19T22:46:58.456Z,74.00
2017-10-19T22:50:09.249Z,73.80
2017-10-19T22:53:19.822Z,73.90
2017-10-19T22:56:30.486Z,74.60
2017-10-19T22:59:40.630Z,74.70
2017-10-19T23:02:50.726Z,74.10
2017-10-19T23:06:00.586Z,73.70
2017-10-19T23:09:10.436Z,74.30
2017-10-19T23:12:20.450Z,74.40
2017-10-19T23:15:30.507Z,72.80
2017-10-19T23:18:41.275Z,71.40
2017-10-19T23:21:51.429Z,71.40
2017-10-19T23:25:01.219Z,70.70
2017-10-19T23:28:11.059Z,69.70
2017-10-19T23:31:21.099Z,68.90
2017-10-19T23:34:31.218Z,68.30
2017-10-19T23:37:41.956Z,67.60
2017-10-19T23:40:52.439Z,67.60
2017-10-19T23:44:03.425Z,66.00
2017-10-19T23:47:13.948Z,66.00
2017-10-19T23:50:23.791Z,65.20
2017-10-19T23:53:33.583Z,65.70
2017-10-19T23:56:43.419Z,66.90
2017-10-19T23:59:53.854Z,67.30
